Time;durP1;ratioP1;P1;durP2;ratioP2;P2;SDS_P1;SDS_P2;PMS_P1;PMS_P2;Temp;Humidity;BMP_temperature;BMP_pressure;BME280_temperature;BME280_humidity;BME280_pressure;Samples;Min_cycle;Max_cycle;Signal;HPM_P1;HPM_P2
2023/01/22 00:00:39;;;;;;;16.50;11.27;;;-1.20;99.90;;;;;;5078808;28;20622;-70
2023/01/22 00:03:06;;;;;;;16.47;10.87;;;-1.20;99.90;;;;;;5079094;28;20242;-70
2023/01/22 00:05:32;;;;;;;15.90;11.27;;;-1.20;99.90;;;;;;5078929;28;20193;-71
2023/01/22 00:07:59;;;;;;;15.10;10.83;;;-1.10;99.90;;;;;;5078982;28;20218;-70
2023/01/22 00:10:27;;;;;;;16.47;11.87;;;-1.20;99.90;;;;;;5079360;28;20197;-69
2023/01/22 00:12:53;;;;;;;16.27;11.33;;;-1.10;99.90;;;;;;5078802;28;20201;-69
2023/01/22 00:15:20;;;;;;;16.80;11.50;;;-1.10;99.90;;;;;;5078973;28;20193;-70
2023/01/22 00:17:46;;;;;;;17.87;11.43;;;-1.10;99.90;;;;;;5078993;28;20205;-70
2023/01/22 00:20:14;;;;;;;16.93;11.37;;;-1.10;99.90;;;;;;5078651;28;20680;-70
2023/01/22 00:22:40;;;;;;;16.43;11.20;;;-1.10;99.90;;;;;;5078770;28;20207;-70
2023/01/22 00:25:10;;;;;;;16.87;11.20;;;-1.20;99.90;;;;;;5078471;28;20248;-70
2023/01/22 00:27:39;;;;;;;19.17;11.80;;;-1.20;99.90;;;;;;5078905;28;20204;-70
2023/01/22 00:30:07;;;;;;;16.77;11.37;;;-1.10;99.90;;;;;;5077061;28;20200;-70
2023/01/22 00:32:34;;;;;;;16.50;11.20;;;-1.10;99.90;;;;;;5075615;28;20213;-70
2023/01/22 00:35:00;;;;;;;15.07;10.57;;;-1.10;99.90;;;;;;5075556;28;20197;-70
2023/01/22 00:37:27;;;;;;;14.93;10.80;;;-1.10;99.90;;;;;;5075367;28;20656;-70
2023/01/22 00:39:53;;;;;;;17.83;11.73;;;-1.10;99.90;;;;;;5075284;28;20197;-70
2023/01/22 00:42:20;;;;;;;14.53;10.30;;;-1.10;99.90;;;;;;5075458;28;20250;-70
2023/01/22 00:44:48;;;;;;;15.80;10.43;;;-1.10;99.90;;;;;;5075481;28;20197;-70
2023/01/22 00:47:14;;;;;;;13.67;10.17;;;-1.10;99.90;;;;;;5075404;28;20564;-70
2023/01/22 00:49:41;;;;;;;15.80;10.57;;;-1.10;99.90;;;;;;5075265;28;20261;-70
2023/01/22 00:52:07;;;;;;;14.87;10.40;;;-1.10;99.90;;;;;;5075109;28;20201;-70
2023/01/22 00:54:34;;;;;;;16.00;10.00;;;-1.10;99.90;;;;;;5075285;28;20557;-70
2023/01/22 00:57:01;;;;;;;14.77;9.80;;;-1.10;99.90;;;;;;5075303;28;20209;-69
2023/01/22 00:59:27;;;;;;;15.10;10.60;;;-1.10;99.90;;;;;;5075140;28;20201;-70
2023/01/22 01:01:55;;;;;;;15.37;9.40;;;-1.00;99.90;;;;;;5074817;28;20711;-70
2023/01/22 01:04:22;;;;;;;15.20;10.20;;;-1.10;99.90;;;;;;5074936;28;20258;-69
2023/01/22 01:06:48;;;;;;;14.20;10.10;;;-1.00;99.90;;;;;;5074831;28;20250;-70
2023/01/22 01:09:15;;;;;;;15.10;10.10;;;-1.10;99.90;;;;;;5075065;28;20254;-70
2023/01/22 01:11:41;;;;;;;14.63;9.77;;;-1.10;99.90;;;;;;5075001;28;20197;-70
2023/01/22 01:14:08;;;;;;;13.73;9.77;;;-1.10;99.90;;;;;;5074806;28;20265;-70
2023/01/22 01:16:35;;;;;;;14.40;9.67;;;-1.10;99.90;;;;;;5074724;28;20197;-70
2023/01/22 01:19:04;;;;;;;13.60;10.03;;;-1.00;99.90;;;;;;5074741;28;20197;-70
2023/01/22 01:21:32;;;;;;;12.93;9.27;;;-1.10;99.90;;;;;;5074567;28;20300;-70
2023/01/22 01:23:59;;;;;;;13.70;9.23;;;-1.00;99.90;;;;;;5074575;28;20648;-69
2023/01/22 01:26:26;;;;;;;13.00;8.40;;;-1.00;99.90;;;;;;5074430;28;20229;-69
2023/01/22 01:28:53;;;;;;;12.73;9.33;;;-1.00;99.90;;;;;;5074528;28;20279;-70
2023/01/22 01:31:21;;;;;;;13.67;9.33;;;-1.00;99.90;;;;;;5074383;28;20197;-69
2023/01/22 01:33:48;;;;;;;14.67;9.80;;;-1.00;99.90;;;;;;5074291;28;20193;-70
2023/01/22 01:36:18;;;;;;;12.10;8.90;;;-1.00;99.90;;;;;;5074512;28;20247;-69
2023/01/22 01:38:45;;;;;;;13.77;9.30;;;-1.00;99.90;;;;;;5074338;28;20405;-70
2023/01/22 01:41:13;;;;;;;12.57;9.20;;;-1.00;99.90;;;;;;5073766;28;20217;-70
2023/01/22 01:43:39;;;;;;;14.93;9.37;;;-1.00;99.90;;;;;;5074291;28;20254;-70
2023/01/22 01:46:15;;;;;;;12.57;8.47;;;-1.00;99.90;;;;;;5074102;28;20542;-70
2023/01/22 01:48:45;;;;;;;11.97;8.23;;;-1.00;99.90;;;;;;5074311;28;20201;-70
2023/01/22 01:51:18;;;;;;;11.37;8.60;;;-1.00;99.90;;;;;;5073989;28;20664;-70
2023/01/22 01:53:47;;;;;;;15.53;9.67;;;-1.00;99.90;;;;;;5074043;28;20569;-70
2023/01/22 01:56:17;;;;;;;12.63;8.47;;;-1.00;99.90;;;;;;5073937;28;20201;-70
2023/01/22 01:58:45;;;;;;;11.97;8.87;;;-1.00;99.90;;;;;;5073818;28;20244;-70
2023/01/22 02:01:15;;;;;;;12.77;8.67;;;-1.00;99.90;;;;;;5073922;28;20217;-70
2023/01/22 02:03:42;;;;;;;12.83;8.87;;;-1.00;99.90;;;;;;5073767;28;20201;-69
2023/01/22 02:06:11;;;;;;;14.23;9.87;;;-0.90;99.90;;;;;;5073796;28;20201;-69
2023/01/22 02:08:39;;;;;;;12.97;9.00;;;-1.00;99.90;;;;;;5073601;28;20657;-70
2023/01/22 02:11:06;;;;;;;13.60;9.53;;;-1.00;99.90;;;;;;5073677;28;20345;-70
2023/01/22 02:13:35;;;;;;;12.47;9.53;;;-1.00;99.90;;;;;;5073505;28;20250;-70
2023/01/22 02:16:02;;;;;;;13.20;9.23;;;-0.90;99.90;;;;;;5073701;28;20201;-70
2023/01/22 02:18:29;;;;;;;11.70;8.40;;;-1.00;99.90;;;;;;5073565;28;20248;-70
2023/01/22 02:20:59;;;;;;;15.30;9.63;;;-0.90;99.90;;;;;;5073690;28;20231;-69
2023/01/22 02:23:26;;;;;;;13.27;9.03;;;-0.90;99.90;;;;;;5073573;28;20243;-69
2023/01/22 02:25:54;;;;;;;12.30;8.80;;;-0.90;99.90;;;;;;5073228;28;20606;-69
2023/01/22 02:28:21;;;;;;;11.63;8.77;;;-0.90;99.90;;;;;;5073557;28;20287;-70
2023/01/22 02:30:48;;;;;;;12.63;8.73;;;-0.90;99.90;;;;;;5073554;28;20246;-70
2023/01/22 02:33:15;;;;;;;12.30;8.43;;;-0.90;99.90;;;;;;5073328;28;20205;-70
2023/01/22 02:35:42;;;;;;;15.23;8.93;;;-1.00;99.90;;;;;;5073256;28;20223;-69
2023/01/22 02:38:10;;;;;;;12.43;9.30;;;-1.00;99.90;;;;;;5073180;28;20263;-69
2023/01/22 02:40:47;;;;;;;10.70;8.63;;;-0.90;99.90;;;;;;5073075;28;20197;-70
2023/01/22 02:43:14;;;;;;;11.93;8.50;;;-0.90;99.90;;;;;;5073187;28;20286;-69
2023/01/22 02:45:41;;;;;;;13.10;8.77;;;-1.00;99.90;;;;;;5073185;28;20243;-70
2023/01/22 02:48:08;;;;;;;12.87;8.57;;;-1.00;99.90;;;;;;5072966;28;20718;-69
2023/01/22 02:50:34;;;;;;;12.10;8.70;;;-1.00;99.90;;;;;;5073084;28;20197;-70
2023/01/22 02:53:01;;;;;;;11.37;8.70;;;-1.00;99.90;;;;;;5072099;28;20627;-70
2023/01/22 02:55:29;;;;;;;11.20;8.03;;;-0.90;99.90;;;;;;5073146;28;20201;-69
2023/01/22 02:57:56;;;;;;;13.40;9.23;;;-1.00;99.90;;;;;;5073072;28;20205;-69
2023/01/22 03:00:22;;;;;;;11.63;8.47;;;-1.00;99.90;;;;;;5072953;28;20201;-69
2023/01/22 03:02:49;;;;;;;10.33;7.90;;;-0.90;99.90;;;;;;5072820;28;20225;-69
2023/01/22 03:05:16;;;;;;;11.73;8.43;;;-0.90;99.90;;;;;;5072804;28;20611;-69
2023/01/22 03:07:43;;;;;;;10.93;8.33;;;-0.90;99.90;;;;;;5072706;28;20603;-69
2023/01/22 03:10:12;;;;;;;11.83;8.53;;;-0.90;99.90;;;;;;5073004;28;20212;-69
2023/01/22 03:23:37;;;;;;;11.57;7.73;;;-0.90;99.90;;;;;;5072753;28;20255;-70
2023/01/22 03:26:04;;;;;;;13.90;8.77;;;-0.90;99.90;;;;;;5072484;28;20229;-70
2023/01/22 03:28:32;;;;;;;11.93;8.73;;;-0.90;99.90;;;;;;5072610;28;20197;-70
2023/01/22 03:30:58;;;;;;;9.60;7.33;;;-0.90;99.90;;;;;;5072771;28;20200;-69
2023/01/22 03:33:25;;;;;;;11.50;8.30;;;-0.90;99.90;;;;;;5072471;28;20204;-69
2023/01/22 03:35:52;;;;;;;12.30;8.57;;;-0.90;99.90;;;;;;5072624;28;20197;-69
2023/01/22 03:38:19;;;;;;;12.07;8.27;;;-0.90;99.90;;;;;;5072541;28;20197;-69
2023/01/22 03:40:45;;;;;;;11.23;8.10;;;-0.90;99.90;;;;;;5072409;28;20197;-69
2023/01/22 03:43:12;;;;;;;10.47;7.90;;;-0.90;99.90;;;;;;5072308;28;20293;-69
2023/01/22 03:45:40;;;;;;;11.10;7.87;;;-0.90;99.90;;;;;;5072685;28;20231;-69
2023/01/22 03:48:06;;;;;;;12.37;8.30;;;-0.90;99.90;;;;;;5072446;28;20603;-69
2023/01/22 03:50:35;;;;;;;10.60;7.83;;;-0.90;99.90;;;;;;5072377;28;20197;-70
2023/01/22 03:53:02;;;;;;;10.50;7.90;;;-0.90;99.90;;;;;;5072376;28;20201;-69
2023/01/22 03:55:29;;;;;;;11.47;8.43;;;-0.90;99.90;;;;;;5072261;28;20204;-70
2023/01/22 03:57:56;;;;;;;11.13;8.33;;;-0.90;99.90;;;;;;5072478;28;20251;-69
2023/01/22 04:00:22;;;;;;;11.47;7.93;;;-0.90;99.90;;;;;;5072225;28;20530;-69
2023/01/22 04:02:52;;;;;;;11.43;8.27;;;-0.90;99.90;;;;;;5072295;28;20224;-70
2023/01/22 04:05:19;;;;;;;11.17;7.97;;;-0.80;99.90;;;;;;5074519;28;20233;-69
2023/01/22 04:07:45;;;;;;;10.17;7.77;;;-0.80;99.90;;;;;;5075976;28;20220;-69
2023/01/22 04:10:12;;;;;;;12.37;8.13;;;-0.80;99.90;;;;;;5075897;28;20197;-70
2023/01/22 04:12:38;;;;;;;10.10;7.47;;;-0.80;99.90;;;;;;5076310;28;20254;-69
2023/01/22 04:15:06;;;;;;;11.83;8.43;;;-0.80;99.90;;;;;;5075756;28;20632;-69
2023/01/22 04:17:33;;;;;;;11.13;7.87;;;-0.80;99.90;;;;;;5075946;28;20254;-70
2023/01/22 04:20:01;;;;;;;10.93;8.67;;;-0.80;99.90;;;;;;5075859;28;20201;-69
2023/01/22 04:22:28;;;;;;;10.90;8.10;;;-0.90;99.90;;;;;;5075596;28;20281;-70
2023/01/22 04:24:54;;;;;;;10.30;8.03;;;-0.90;99.90;;;;;;5075631;28;20533;-69
2023/01/22 04:27:21;;;;;;;12.07;8.43;;;-0.80;99.90;;;;;;5075544;28;20247;-69
2023/01/22 04:29:47;;;;;;;11.43;8.13;;;-0.80;99.90;;;;;;5075763;28;20256;-69
2023/01/22 04:32:14;;;;;;;9.60;7.77;;;-0.80;99.90;;;;;;5075499;28;20652;-69
2023/01/22 04:34:40;;;;;;;10.43;8.23;;;-0.90;99.90;;;;;;5075606;28;20252;-69
2023/01/22 04:37:08;;;;;;;11.00;7.93;;;-0.90;99.90;;;;;;5075441;28;20251;-69
2023/01/22 04:39:35;;;;;;;10.47;8.13;;;-0.90;99.90;;;;;;5075390;28;20651;-69
2023/01/22 04:42:01;;;;;;;10.40;7.47;;;-0.90;99.90;;;;;;5075429;28;20213;-69
2023/01/22 04:44:28;;;;;;;11.17;8.00;;;-0.90;99.90;;;;;;5075441;28;20246;-69
2023/01/22 04:46:55;;;;;;;12.23;8.07;;;-0.90;99.90;;;;;;5075271;28;20633;-69
2023/01/22 04:49:21;;;;;;;10.67;7.97;;;-0.80;99.90;;;;;;5075280;28;20250;-68
2023/01/22 04:51:48;;;;;;;10.33;7.50;;;-0.80;99.90;;;;;;5075091;28;20634;-69
2023/01/22 04:54:16;;;;;;;9.83;7.73;;;-0.90;99.90;;;;;;5075325;28;20251;-69
2023/01/22 04:56:42;;;;;;;10.73;8.00;;;-0.90;99.90;;;;;;5075181;28;20251;-69
2023/01/22 04:59:09;;;;;;;9.97;7.87;;;-0.90;99.90;;;;;;5075152;28;20193;-69
2023/01/22 05:01:36;;;;;;;9.83;7.57;;;-0.90;99.90;;;;;;5074918;28;20255;-70
2023/01/22 05:04:02;;;;;;;10.03;7.93;;;-0.80;99.90;;;;;;5074998;28;20201;-69
2023/01/22 05:06:30;;;;;;;10.93;8.37;;;-0.90;99.90;;;;;;5074823;28;20197;-69
2023/01/22 05:08:57;;;;;;;9.90;7.87;;;-0.80;99.90;;;;;;5074815;28;20652;-69
2023/01/22 05:11:24;;;;;;;9.67;7.87;;;-0.80;99.90;;;;;;5074997;28;20197;-69
2023/01/22 05:13:51;;;;;;;9.63;7.73;;;-0.90;99.90;;;;;;5074795;28;20246;-69
2023/01/22 05:16:18;;;;;;;10.77;8.40;;;-0.80;99.90;;;;;;5073832;28;20649;-69
2023/01/22 05:18:44;;;;;;;12.83;8.77;;;-0.90;99.90;;;;;;5074746;28;20341;-69
2023/01/22 05:21:11;;;;;;;10.47;7.87;;;-0.80;99.90;;;;;;5074658;28;20197;-69
2023/01/22 05:23:37;;;;;;;11.17;8.13;;;-0.80;99.90;;;;;;5074656;28;20229;-69
2023/01/22 05:26:04;;;;;;;9.93;8.00;;;-0.80;99.90;;;;;;5074443;28;20278;-69
2023/01/22 05:28:32;;;;;;;11.57;8.60;;;-0.80;99.90;;;;;;5074599;28;20618;-70
2023/01/22 05:30:59;;;;;;;11.10;8.33;;;-0.80;99.90;;;;;;5074494;28;20243;-70
2023/01/22 05:33:28;;;;;;;11.60;8.83;;;-0.80;99.90;;;;;;5074285;28;20209;-70
2023/01/22 05:35:56;;;;;;;11.20;8.27;;;-0.80;99.90;;;;;;5074257;28;20557;-70
2023/01/22 05:38:23;;;;;;;10.90;8.43;;;-0.80;99.90;;;;;;5074479;28;20197;-70
2023/01/22 05:40:49;;;;;;;9.67;8.17;;;-0.80;99.90;;;;;;5074218;28;20717;-70
2023/01/22 05:43:16;;;;;;;10.97;8.73;;;-0.80;99.90;;;;;;5074176;28;20279;-70
2023/01/22 05:45:44;;;;;;;11.50;8.30;;;-0.80;99.90;;;;;;5074194;28;20201;-70
2023/01/22 05:48:11;;;;;;;12.17;9.10;;;-0.80;99.90;;;;;;5074055;28;20838;-70
2023/01/22 05:50:37;;;;;;;10.33;7.93;;;-0.80;99.90;;;;;;5074231;28;20227;-70
2023/01/22 05:53:04;;;;;;;11.33;8.20;;;-0.80;99.90;;;;;;5074192;28;20254;-70
2023/01/22 05:55:32;;;;;;;9.07;7.33;;;-0.80;99.90;;;;;;5074032;28;20208;-70
2023/01/22 05:57:58;;;;;;;10.87;8.50;;;-0.90;99.90;;;;;;5073932;28;20197;-69
2023/01/22 06:00:25;;;;;;;10.77;8.07;;;-0.90;99.90;;;;;;5073816;28;20200;-70
2023/01/22 06:02:56;;;;;;;10.23;7.73;;;-0.90;99.90;;;;;;5073916;28;20224;-69
2023/01/22 06:05:23;;;;;;;10.57;8.20;;;-0.80;99.90;;;;;;5074032;28;20201;-69
2023/01/22 06:07:49;;;;;;;11.93;8.60;;;-0.80;99.90;;;;;;5073862;28;20201;-70
2023/01/22 06:10:17;;;;;;;12.10;8.50;;;-0.90;99.90;;;;;;5073778;28;20197;-69
2023/01/22 06:12:44;;;;;;;11.70;8.20;;;-0.90;99.90;;;;;;5073734;28;20610;-69
2023/01/22 06:15:11;;;;;;;9.53;7.93;;;-0.90;99.90;;;;;;5073500;28;20246;-68
2023/01/22 06:17:38;;;;;;;10.37;8.10;;;-0.90;99.90;;;;;;5073652;28;20193;-69
2023/01/22 06:20:07;;;;;;;10.47;8.50;;;-0.90;99.90;;;;;;5073388;28;20564;-70
2023/01/22 06:22:34;;;;;;;11.67;9.27;;;-0.80;99.90;;;;;;5073423;28;20271;-69
2023/01/22 06:25:00;;;;;;;12.03;9.23;;;-0.80;99.90;;;;;;5073257;28;20262;-70
2023/01/22 06:27:27;;;;;;;10.73;8.13;;;-0.80;99.90;;;;;;5073286;28;20247;-69
2023/01/22 06:29:53;;;;;;;12.23;8.13;;;-0.90;99.90;;;;;;5073223;28;20196;-69
2023/01/22 06:32:21;;;;;;;11.73;8.83;;;-0.90;99.90;;;;;;5073459;28;20196;-70
2023/01/22 06:34:48;;;;;;;10.63;8.80;;;-0.90;99.90;;;;;;5073362;28;20197;-70
2023/01/22 06:37:16;;;;;;;11.20;8.60;;;-0.90;99.90;;;;;;5073301;28;20246;-70
2023/01/22 06:39:42;;;;;;;10.83;8.23;;;-0.80;99.90;;;;;;5073249;28;20197;-69
2023/01/22 06:42:09;;;;;;;11.70;8.77;;;-0.80;99.90;;;;;;5072958;28;20200;-69
2023/01/22 06:44:35;;;;;;;12.67;9.43;;;-0.80;99.90;;;;;;5073321;28;20249;-70
2023/01/22 06:47:02;;;;;;;12.40;10.23;;;-0.80;99.90;;;;;;5073251;28;20251;-70
2023/01/22 06:49:28;;;;;;;12.33;9.00;;;-0.80;99.90;;;;;;5073356;28;20197;-69
2023/01/22 06:51:55;;;;;;;11.20;8.40;;;-0.80;99.90;;;;;;5073070;28;20197;-70
2023/01/22 06:54:23;;;;;;;12.07;9.53;;;-0.80;99.90;;;;;;5073064;28;20415;-70
2023/01/22 06:56:49;;;;;;;12.23;9.13;;;-0.80;99.90;;;;;;5072950;28;20538;-70
2023/01/22 06:59:16;;;;;;;11.13;8.77;;;-0.80;99.90;;;;;;5073104;28;20201;-70
2023/01/22 07:01:43;;;;;;;11.90;8.83;;;-0.80;99.90;;;;;;5072886;28;20201;-70
2023/01/22 07:04:09;;;;;;;10.63;8.63;;;-0.80;99.90;;;;;;5072882;28;20225;-70
2023/01/22 07:06:36;;;;;;;10.60;8.17;;;-0.80;99.90;;;;;;5072858;28;20205;-70
2023/01/22 07:09:02;;;;;;;11.77;8.43;;;-0.80;99.90;;;;;;5072774;28;20652;-70
2023/01/22 07:11:30;;;;;;;10.17;8.30;;;-0.70;99.90;;;;;;5072766;28;20196;-70
2023/01/22 07:13:57;;;;;;;11.30;8.77;;;-0.70;99.90;;;;;;5072987;28;20263;-70
2023/01/22 07:16:24;;;;;;;11.57;8.47;;;-0.70;99.90;;;;;;5072966;28;20197;-70
2023/01/22 07:18:50;;;;;;;11.33;8.53;;;-0.70;99.90;;;;;;5072784;28;20227;-70
2023/01/22 07:21:17;;;;;;;11.43;8.33;;;-0.70;99.90;;;;;;5072773;28;20197;-70
2023/01/22 07:23:43;;;;;;;12.80;8.37;;;-0.70;99.90;;;;;;5072580;28;20279;-70
2023/01/22 07:26:10;;;;;;;11.37;8.93;;;-0.70;99.90;;;;;;5072437;28;20315;-70
2023/01/22 07:28:38;;;;;;;11.63;8.83;;;-0.70;99.90;;;;;;5072746;28;20674;-70
2023/01/22 07:31:09;;;;;;;10.30;7.97;;;-0.70;99.90;;;;;;5072764;28;20193;-70
2023/01/22 07:33:36;;;;;;;13.80;9.73;;;-0.60;99.90;;;;;;5072680;28;20262;-70
2023/01/22 07:36:03;;;;;;;10.43;8.10;;;-0.70;99.90;;;;;;5072526;28;20254;-70
2023/01/22 07:38:29;;;;;;;11.30;8.47;;;-0.60;99.90;;;;;;5072428;28;20197;-70
2023/01/22 07:41:00;;;;;;;11.00;8.60;;;-0.60;99.90;;;;;;5076316;28;20201;-69
2023/01/22 07:43:27;;;;;;;11.77;9.07;;;-0.60;99.90;;;;;;5076621;28;20278;-70
2023/01/22 07:45:56;;;;;;;11.10;9.07;;;-0.60;99.90;;;;;;5076614;28;20201;-70
2023/01/22 07:48:23;;;;;;;11.73;9.60;;;-0.60;99.90;;;;;;5076522;28;20207;-69
2023/01/22 07:50:50;;;;;;;10.70;8.10;;;-0.60;99.90;;;;;;5076350;28;20653;-70
2023/01/22 07:53:17;;;;;;;11.07;8.47;;;-0.60;99.90;;;;;;5076275;28;20205;-70
2023/01/22 07:55:43;;;;;;;10.27;8.70;;;-0.50;99.90;;;;;;5076481;28;20197;-70
2023/01/22 07:58:11;;;;;;;11.53;8.70;;;-0.50;99.90;;;;;;5076323;28;20254;-70
2023/01/22 08:00:38;;;;;;;11.13;8.87;;;-0.40;99.90;;;;;;5076200;28;20255;-70
2023/01/22 08:03:09;;;;;;;11.10;8.83;;;-0.40;99.90;;;;;;5075957;28;20749;-70
2023/01/22 08:05:35;;;;;;;11.63;8.60;;;-0.30;99.90;;;;;;5076025;28;20204;-69
2023/01/22 08:08:02;;;;;;;12.33;8.90;;;-0.30;99.90;;;;;;5075862;28;20648;-70
2023/01/22 08:10:29;;;;;;;11.03;8.83;;;-0.20;99.90;;;;;;5075992;28;20201;-69
2023/01/22 08:12:55;;;;;;;10.83;8.13;;;-0.20;99.90;;;;;;5075976;28;20201;-70
2023/01/22 08:15:22;;;;;;;10.47;8.27;;;-0.20;99.90;;;;;;5075704;28;20201;-70
2023/01/22 08:17:49;;;;;;;10.87;8.83;;;-0.20;99.90;;;;;;5075580;28;20648;-70
2023/01/22 08:20:18;;;;;;;11.53;9.03;;;-0.20;99.90;;;;;;5075641;28;20201;-70
2023/01/22 08:22:45;;;;;;;11.27;8.80;;;-0.10;99.90;;;;;;5075675;28;20197;-70
2023/01/22 08:25:11;;;;;;;13.07;9.07;;;0.00;99.90;;;;;;5075562;28;20197;-70
2023/01/22 08:27:38;;;;;;;10.83;8.73;;;0.00;99.90;;;;;;5075464;28;20228;-71
2023/01/22 08:30:06;;;;;;;10.77;8.07;;;0.10;99.90;;;;;;5075576;28;20193;-70
2023/01/22 08:32:33;;;;;;;11.63;9.23;;;0.20;99.90;;;;;;5075440;28;20197;-70
2023/01/22 08:34:59;;;;;;;11.33;8.13;;;0.20;99.90;;;;;;5075356;28;20259;-71
2023/01/22 08:37:27;;;;;;;10.73;8.10;;;0.30;99.90;;;;;;5075544;28;20227;-70
2023/01/22 08:39:55;;;;;;;11.00;8.87;;;0.30;99.90;;;;;;5075566;28;20201;-72
2023/01/22 08:42:21;;;;;;;11.07;8.63;;;0.30;99.90;;;;;;5075393;28;20197;-73
2023/01/22 08:44:48;;;;;;;10.67;8.47;;;0.30;99.90;;;;;;5075277;28;20224;-73
2023/01/22 08:47:14;;;;;;;9.47;8.00;;;0.30;99.90;;;;;;5075153;28;20223;-73
2023/01/22 08:49:41;;;;;;;9.40;7.77;;;0.30;99.90;;;;;;5075354;28;20193;-72
2023/01/22 08:52:08;;;;;;;11.90;8.40;;;0.40;99.90;;;;;;5073753;28;20556;-73
2023/01/22 08:54:36;;;;;;;9.67;7.77;;;0.30;99.90;;;;;;5074986;28;20664;-71
2023/01/22 08:57:02;;;;;;;10.77;8.50;;;0.40;99.90;;;;;;5075103;28;20246;-71
2023/01/22 08:59:29;;;;;;;10.63;8.43;;;0.50;99.90;;;;;;5074959;28;20193;-73
2023/01/22 09:01:57;;;;;;;9.30;7.93;;;0.50;99.90;;;;;;5074875;28;20204;-72
2023/01/22 09:04:24;;;;;;;10.53;8.37;;;0.50;99.90;;;;;;5074978;28;20224;-72
2023/01/22 09:06:51;;;;;;;9.97;8.13;;;0.50;99.90;;;;;;5074968;28;20603;-72
2023/01/22 09:09:17;;;;;;;10.27;7.80;;;0.60;99.90;;;;;;5074700;28;20197;-73
2023/01/22 09:11:45;;;;;;;9.93;6.90;;;0.70;99.90;;;;;;5074696;28;20710;-72
2023/01/22 09:14:12;;;;;;;9.53;7.77;;;0.80;99.90;;;;;;5074582;28;20193;-72
2023/01/22 09:16:39;;;;;;;10.90;7.77;;;0.80;99.90;;;;;;5074746;28;20193;-72
2023/01/22 09:19:07;;;;;;;7.17;6.47;;;0.80;99.90;;;;;;5074826;28;20246;-73
2023/01/22 09:21:36;;;;;;;8.60;6.80;;;0.80;99.90;;;;;;5074544;28;20243;-73
2023/01/22 09:24:02;;;;;;;7.60;6.80;;;0.80;99.90;;;;;;5074456;28;20220;-73
2023/01/22 09:26:31;;;;;;;8.17;6.83;;;0.70;99.90;;;;;;5074343;28;20282;-73
2023/01/22 09:28:59;;;;;;;8.77;6.73;;;0.80;99.90;;;;;;5074319;28;20212;-74
2023/01/22 09:31:26;;;;;;;7.63;6.60;;;0.80;99.90;;;;;;5074547;28;20196;-73
2023/01/22 09:33:54;;;;;;;10.20;7.80;;;0.70;99.90;;;;;;5074456;28;20560;-73
2023/01/22 09:36:21;;;;;;;10.47;8.20;;;0.90;99.90;;;;;;5074419;28;20242;-72
2023/01/22 09:38:47;;;;;;;7.20;6.50;;;0.90;99.90;;;;;;5074283;28;20656;-72
2023/01/22 09:41:21;;;;;;;8.57;7.17;;;0.90;99.90;;;;;;5074222;28;20205;-73
2023/01/22 09:43:52;;;;;;;9.13;7.23;;;0.90;99.90;;;;;;5074402;28;20271;-73
2023/01/22 09:46:25;;;;;;;7.73;6.93;;;1.00;99.90;;;;;;5074475;28;20204;-72
2023/01/22 09:48:57;;;;;;;7.37;6.20;;;1.00;99.90;;;;;;5074289;28;20266;-73
2023/01/22 09:51:23;;;;;;;9.30;7.83;;;1.00;99.90;;;;;;5074145;28;20250;-72
2023/01/22 09:53:55;;;;;;;10.57;7.43;;;1.00;99.90;;;;;;5073928;28;20289;-73
2023/01/22 09:56:26;;;;;;;9.50;7.63;;;0.90;99.90;;;;;;5074131;28;20603;-72
2023/01/22 09:58:54;;;;;;;8.13;7.07;;;0.90;99.90;;;;;;5073714;28;20714;-72
2023/01/22 10:01:23;;;;;;;8.83;7.40;;;0.90;99.90;;;;;;5073755;28;20201;-72
2023/01/22 10:03:54;;;;;;;8.33;7.17;;;0.90;99.90;;;;;;5073234;28;20217;-72
2023/01/22 10:06:24;;;;;;;9.73;7.70;;;0.90;99.90;;;;;;5073550;28;20262;-71
2023/01/22 10:08:58;;;;;;;7.53;6.70;;;1.00;99.90;;;;;;5073709;28;20207;-72
2023/01/22 10:11:25;;;;;;;7.83;6.80;;;1.00;99.90;;;;;;5073504;28;20659;-73
2023/01/22 10:13:55;;;;;;;9.37;7.43;;;1.00;99.90;;;;;;5073485;28;20722;-72
2023/01/22 10:16:23;;;;;;;7.87;7.07;;;1.00;99.90;;;;;;5073479;28;20196;-72
2023/01/22 10:18:55;;;;;;;8.57;7.63;;;1.00;99.90;;;;;;5073352;28;20201;-72
2023/01/22 10:21:24;;;;;;;9.10;7.23;;;1.00;99.90;;;;;;5073563;28;20194;-73
2023/01/22 10:23:51;;;;;;;8.13;7.03;;;1.00;99.90;;;;;;5073326;28;20278;-72
2023/01/22 10:26:23;;;;;;;8.17;7.30;;;1.10;99.90;;;;;;5073186;28;20233;-73
2023/01/22 10:28:53;;;;;;;7.73;6.87;;;1.10;99.90;;;;;;5073135;28;20583;-72
2023/01/22 10:31:26;;;;;;;7.67;6.47;;;1.10;99.90;;;;;;5072878;28;20205;-72
2023/01/22 10:33:57;;;;;;;8.23;7.10;;;1.10;99.90;;;;;;5073266;28;20196;-72
2023/01/22 10:36:24;;;;;;;7.97;6.43;;;1.10;99.90;;;;;;5073256;28;20212;-72
2023/01/22 10:39:01;;;;;;;8.83;7.50;;;1.10;99.90;;;;;;5072960;28;20644;-72
2023/01/22 10:41:30;;;;;;;8.30;7.10;;;1.20;99.90;;;;;;5073139;28;20205;-72
2023/01/22 10:44:17;;;;;;;8.07;6.97;;;1.10;99.90;;;;;;5072908;28;20738;-72
2023/01/22 10:46:47;;;;;;;8.70;7.50;;;1.20;99.90;;;;;;5073165;28;20271;-72
2023/01/22 10:49:16;;;;;;;7.30;6.33;;;1.30;99.90;;;;;;5073076;28;20196;-72
2023/01/22 10:51:46;;;;;;;8.23;7.33;;;1.40;99.90;;;;;;5072930;28;20201;-72
2023/01/22 10:54:21;;;;;;;8.47;7.00;;;1.50;99.90;;;;;;5072789;28;20250;-72
2023/01/22 10:56:48;;;;;;;8.37;7.03;;;1.40;99.90;;;;;;5073185;28;20197;-72
2023/01/22 10:59:21;;;;;;;9.20;7.23;;;1.60;99.90;;;;;;5072968;28;20210;-72
2023/01/22 11:01:56;;;;;;;8.40;7.47;;;1.70;99.90;;;;;;5072937;28;20247;-72
2023/01/22 11:04:25;;;;;;;8.73;7.47;;;1.70;99.90;;;;;;5072749;28;20257;-72
2023/01/22 11:06:55;;;;;;;7.33;6.50;;;1.70;99.90;;;;;;5072722;28;20198;-72
2023/01/22 11:09:27;;;;;;;7.80;6.80;;;1.70;99.90;;;;;;5072914;28;20201;-72
2023/01/22 11:11:59;;;;;;;7.77;7.00;;;1.80;99.90;;;;;;5072891;28;20201;-72
2023/01/22 11:14:29;;;;;;;8.87;7.97;;;1.80;99.90;;;;;;5072029;28;20207;-72
2023/01/22 11:17:02;;;;;;;9.30;6.97;;;1.80;99.90;;;;;;5072615;28;20193;-71
2023/01/22 11:19:39;;;;;;;8.57;7.67;;;1.80;99.90;;;;;;5072614;28;20195;-71
2023/01/22 11:22:15;;;;;;;7.03;6.33;;;1.90;99.90;;;;;;5072845;28;20198;-71
2023/01/22 11:24:46;;;;;;;7.80;7.00;;;1.70;99.90;;;;;;5072520;28;20558;-70
2023/01/22 11:27:29;;;;;;;7.77;6.70;;;1.60;99.90;;;;;;5072566;28;20266;-71
2023/01/22 11:30:09;;;;;;;9.90;7.87;;;1.60;99.90;;;;;;5072772;28;20198;-71
2023/01/22 11:32:49;;;;;;;12.03;9.23;;;1.60;99.90;;;;;;5072489;28;20719;-70
2023/01/22 11:35:21;;;;;;;12.13;8.43;;;1.60;99.90;;;;;;5072616;28;20204;-70
2023/01/22 11:38:02;;;;;;;8.97;6.97;;;1.60;99.90;;;;;;5072604;28;20212;-71
2023/01/22 11:40:30;;;;;;;8.33;7.27;;;1.50;99.90;;;;;;5072400;28;20720;-70
2023/01/22 11:43:19;;;;;;;10.53;7.83;;;1.50;99.90;;;;;;5072594;28;20219;-71
2023/01/22 11:46:06;;;;;;;9.57;8.17;;;1.50;99.90;;;;;;5072396;28;20230;-71
2023/01/22 11:48:50;;;;;;;10.10;8.27;;;1.50;99.90;;;;;;5072293;28;20197;-71
2023/01/22 11:51:23;;;;;;;9.10;8.10;;;1.50;99.90;;;;;;5072501;28;20200;-71
2023/01/22 11:54:06;;;;;;;9.07;7.57;;;1.50;99.90;;;;;;5072438;28;20244;-71
2023/01/22 11:56:59;;;;;;;10.07;7.27;;;1.40;99.90;;;;;;5072308;28;20202;-71
2023/01/22 11:59:39;;;;;;;8.10;7.30;;;1.40;99.90;;;;;;5065569;28;20197;-71
2023/01/22 12:02:26;;;;;;;8.77;7.13;;;1.50;99.90;;;;;;5072354;28;20611;-71
2023/01/22 12:05:21;;;;;;;9.40;7.77;;;1.50;99.90;;;;;;5072149;28;20222;-71
2023/01/22 12:08:13;;;;;;;9.20;7.10;;;1.40;99.90;;;;;;5069230;28;20202;-71
2023/01/22 12:11:19;;;;;;;7.73;6.93;;;1.50;99.90;;;;;;5069198;28;20619;-70
2023/01/22 12:14:14;;;;;;;8.63;7.40;;;1.60;99.90;;;;;;5066821;28;20206;-71
2023/01/22 12:16:48;;;;;;;8.53;7.20;;;1.50;99.90;;;;;;5072054;28;20653;-71
2023/01/22 12:19:39;;;;;;;8.67;7.30;;;1.50;99.90;;;;;;5072220;28;20221;-71
2023/01/22 12:22:16;;;;;;;11.20;8.10;;;1.40;99.90;;;;;;5072298;28;20203;-71
2023/01/22 12:24:47;;;;;;;10.07;7.90;;;1.40;99.90;;;;;;5072063;28;20243;-70
2023/01/22 12:27:19;;;;;;;9.57;7.97;;;1.50;99.90;;;;;;5075475;28;20230;-70
2023/01/22 12:29:52;;;;;;;8.13;7.03;;;1.60;99.90;;;;;;5075508;28;20653;-71
2023/01/22 12:32:21;;;;;;;8.37;7.20;;;1.60;99.90;;;;;;5075388;28;20198;-71
2023/01/22 12:34:54;;;;;;;8.67;7.43;;;1.60;99.90;;;;;;5075562;28;20320;-71
2023/01/22 12:37:26;;;;;;;9.67;7.60;;;1.60;99.90;;;;;;5075310;28;20223;-71
2023/01/22 12:40:06;;;;;;;10.17;7.60;;;1.70;99.90;;;;;;5075229;28;20595;-71
2023/01/22 12:42:38;;;;;;;10.20;7.80;;;1.90;99.90;;;;;;5075294;28;20315;-70
2023/01/22 12:45:17;;;;;;;10.37;7.90;;;1.90;99.90;;;;;;5075325;28;20224;-70
2023/01/22 12:47:52;;;;;;;7.47;6.67;;;2.10;99.90;;;;;;5075377;28;20197;-69
2023/01/22 12:50:21;;;;;;;8.47;7.50;;;2.10;99.90;;;;;;5075236;28;20255;-70
2023/01/22 12:52:59;;;;;;;9.93;7.87;;;2.00;99.90;;;;;;5075054;28;20247;-70
2023/01/22 12:55:31;;;;;;;8.77;7.73;;;2.10;99.90;;;;;;5075282;28;20202;-72
2023/01/22 12:57:58;;;;;;;10.43;7.83;;;2.20;99.90;;;;;;5075171;28;20199;-71
2023/01/22 13:00:33;;;;;;;8.37;7.10;;;2.30;99.90;;;;;;5075107;28;20252;-71
2023/01/22 13:03:00;;;;;;;8.73;7.10;;;2.40;99.90;;;;;;5074994;28;20222;-70